createdAt,value
2023-01-15T00:00:05.989Z,98799.00
2023-01-15T00:02:34.103Z,98805.00
2023-01-15T00:05:03.258Z,98831.00
2023-01-15T00:07:31.208Z,98844.00
2023-01-15T00:09:59.049Z,98853.00
2023-01-15T00:12:26.717Z,98864.00
2023-01-15T00:14:57.905Z,98865.00
2023-01-15T00:17:26.099Z,98871.00
2023-01-15T00:19:53.728Z,98865.00
2023-01-15T00:22:21.384Z,98862.00
2023-01-15T00:25:06.856Z,98869.00
2023-01-15T00:27:40.441Z,98860.00
2023-01-15T00:30:13.037Z,98850.00
2023-01-15T00:32:41.294Z,98854.00
2023-01-15T00:35:13.489Z,98838.00
2023-01-15T00:37:41.424Z,98862.00
2023-01-15T00:40:10.655Z,98878.00
2023-01-15T00:42:38.406Z,98878.00
2023-01-15T00:45:10.238Z,98866.00
2023-01-15T00:47:40.789Z,98886.00
2023-01-15T00:50:15.773Z,98889.00
2023-01-15T00:52:43.733Z,98899.00
2023-01-15T00:55:11.540Z,98894.00
2023-01-15T00:57:39.618Z,98910.00
2023-01-15T01:00:08.363Z,98909.00
2023-01-15T01:02:36.263Z,98921.00
2023-01-15T01:05:06.191Z,98916.00
2023-01-15T01:07:33.984Z,98923.00
2023-01-15T01:10:01.726Z,98937.00
2023-01-15T01:12:29.756Z,98907.00
2023-01-15T01:14:57.631Z,98938.00
2023-01-15T01:17:25.456Z,98937.00
2023-01-15T01:19:53.574Z,98900.00
2023-01-15T01:22:22.798Z,98952.00
2023-01-15T01:24:50.816Z,98955.00
2023-01-15T01:27:19.494Z,98958.00
2023-01-15T01:29:47.294Z,98956.00
2023-01-15T01:32:15.972Z,98900.00
2023-01-15T01:34:43.840Z,98944.00
2023-01-15T01:37:11.624Z,98907.00
2023-01-15T01:39:41.658Z,98977.00
2023-01-15T01:42:13.480Z,98968.00
2023-01-15T01:45:03.159Z,98949.00
2023-01-15T01:47:32.947Z,98962.00
2023-01-15T01:50:04.749Z,98926.00
2023-01-15T01:52:37.800Z,98968.00
2023-01-15T01:55:08.859Z,98991.00
2023-01-15T01:57:37.374Z,98923.00
2023-01-15T02:00:06.977Z,98969.00
2023-01-15T02:02:36.067Z,98977.00
2023-01-15T02:05:05.408Z,98984.00
2023-01-15T02:07:34.922Z,98947.00
2023-01-15T02:10:02.920Z,98973.00
2023-01-15T02:12:36.832Z,98956.00
2023-01-15T02:15:13.578Z,98982.00
2023-01-15T02:17:47.711Z,98976.00
2023-01-15T02:20:28.864Z,98983.00
2023-01-15T02:23:07.285Z,98971.00
2023-01-15T02:25:53.510Z,98983.00
2023-01-15T02:28:27.190Z,98968.00
2023-01-15T02:31:00.777Z,98995.00
2023-01-15T02:33:36.609Z,99011.00
2023-01-15T02:36:06.696Z,98960.00
2023-01-15T02:38:40.423Z,98979.00
2023-01-15T02:41:16.265Z,98963.00
2023-01-15T02:43:48.391Z,98989.00
2023-01-15T02:46:18.635Z,98967.00
2023-01-15T02:48:51.508Z,98971.00
2023-01-15T02:51:22.630Z,98988.00
2023-01-15T02:53:53.584Z,98989.00
2023-01-15T02:56:25.091Z,98943.00
2023-01-15T02:59:03.338Z,98971.00
2023-01-15T03:01:35.451Z,98949.00
2023-01-15T03:04:09.897Z,98916.00
2023-01-15T03:06:42.640Z,98944.00
2023-01-15T03:09:10.806Z,98928.00
2023-01-15T03:11:44.345Z,98942.00
2023-01-15T03:14:20.081Z,98923.00
2023-01-15T03:16:53.820Z,98953.00
2023-01-15T03:19:28.155Z,98948.00
2023-01-15T03:22:00.669Z,98953.00
2023-01-15T03:24:37.638Z,98939.00
2023-01-15T03:27:05.654Z,98939.00
2023-01-15T03:29:39.648Z,98954.00
2023-01-15T03:32:08.058Z,98908.00
2023-01-15T03:34:41.449Z,98941.00
2023-01-15T03:37:09.680Z,98933.00
2023-01-15T03:39:37.812Z,98920.00
2023-01-15T03:42:19.742Z,98893.00
2023-01-15T03:44:56.456Z,98945.00
2023-01-15T03:47:34.346Z,98920.00
2023-01-15T03:50:07.411Z,98902.00
2023-01-15T03:52:43.465Z,98896.00
2023-01-15T03:55:16.814Z,98933.00
2023-01-15T03:57:51.788Z,98923.00
2023-01-15T04:00:26.640Z,98920.00
2023-01-15T04:02:55.710Z,98928.00
2023-01-15T04:05:25.234Z,98915.00
2023-01-15T04:07:55.782Z,98907.00
2023-01-15T04:10:23.734Z,98871.00
2023-01-15T04:12:51.591Z,98899.00
2023-01-15T04:15:21.078Z,98909.00
2023-01-15T04:17:48.918Z,98917.00
2023-01-15T04:20:17.108Z,98906.00
2023-01-15T04:22:44.952Z,98893.00
2023-01-15T04:25:12.801Z,98904.00
2023-01-15T04:27:40.629Z,98902.00
2023-01-15T04:30:09.795Z,98868.00
2023-01-15T04:32:39.005Z,98901.00
2023-01-15T04:35:07.427Z,98914.00
2023-01-15T04:37:35.378Z,98926.00
2023-01-15T04:40:03.769Z,98919.00
2023-01-15T04:43:00.358Z,98899.00
2023-01-15T04:45:29.109Z,98912.00
2023-01-15T04:47:58.423Z,98881.00
2023-01-15T04:50:26.199Z,98882.00
2023-01-15T04:52:54.099Z,98891.00
2023-01-15T04:55:21.993Z,98877.00
2023-01-15T04:57:51.057Z,98898.00
2023-01-15T05:00:19.932Z,98888.00
2023-01-15T05:02:47.891Z,98922.00
2023-01-15T05:05:17.371Z,98933.00
2023-01-15T05:07:45.253Z,98936.00
2023-01-15T05:10:13.113Z,98921.00
2023-01-15T05:12:41.017Z,98898.00
2023-01-15T05:15:09.469Z,98933.00
2023-01-15T05:17:37.282Z,98943.00
2023-01-15T05:20:05.888Z,98938.00
2023-01-15T05:22:36.205Z,98940.00
2023-01-15T05:25:04.138Z,98919.00
2023-01-15T05:27:32.258Z,98907.00
2023-01-15T05:30:00.099Z,98914.00
2023-01-15T05:32:27.943Z,98920.00
2023-01-15T05:34:55.813Z,98875.00
2023-01-15T05:37:23.742Z,98920.00
2023-01-15T05:39:53.463Z,98924.00
2023-01-15T05:42:21.255Z,98917.00
2023-01-15T05:44:49.073Z,98886.00
2023-01-15T05:47:16.883Z,98927.00
2023-01-15T05:49:44.998Z,98885.00
2023-01-15T05:52:12.839Z,98907.00
2023-01-15T05:54:40.733Z,98920.00
2023-01-15T05:57:12.909Z,98915.00
2023-01-15T05:59:41.173Z,98917.00
2023-01-15T06:02:09.029Z,98921.00
2023-01-15T06:04:36.875Z,98880.00
2023-01-15T06:07:04.710Z,98927.00
2023-01-15T06:09:32.507Z,98922.00
2023-01-15T06:12:00.777Z,98910.00
2023-01-15T06:14:29.971Z,98941.00
2023-01-15T06:16:57.872Z,98926.00
2023-01-15T06:19:25.763Z,98954.00
2023-01-15T06:21:56.685Z,98922.00
2023-01-15T06:24:24.534Z,98910.00
2023-01-15T06:26:52.443Z,98943.00
2023-01-15T06:29:20.559Z,98919.00
2023-01-15T06:31:50.203Z,98947.00
2023-01-15T06:34:19.063Z,98914.00
2023-01-15T06:36:46.976Z,98947.00
2023-01-15T06:39:14.784Z,98944.00
2023-01-15T06:42:00.310Z,98940.00
2023-01-15T06:44:45.524Z,98940.00
2023-01-15T06:47:23.839Z,98945.00
2023-01-15T06:49:54.359Z,98956.00
2023-01-15T06:52:22.784Z,98939.00
2023-01-15T06:55:18.475Z,98941.00
2023-01-15T06:57:46.591Z,98949.00
2023-01-15T07:00:15.635Z,98942.00
2023-01-15T07:02:44.744Z,98934.00
2023-01-15T07:05:12.534Z,98948.00
2023-01-15T07:07:40.294Z,98940.00
2023-01-15T07:10:09.141Z,98935.00
2023-01-15T07:12:37.098Z,98941.00
2023-01-15T07:15:33.837Z,98904.00
2023-01-15T07:18:05.739Z,98897.00
2023-01-15T07:20:34.311Z,98925.00
2023-01-15T07:23:02.812Z,98909.00
2023-01-15T07:25:31.082Z,98931.00
2023-01-15T07:27:58.892Z,98948.00
2023-01-15T07:30:26.977Z,98924.00
2023-01-15T07:32:57.830Z,98953.00
2023-01-15T07:35:27.317Z,98941.00
2023-01-15T07:37:57.129Z,98946.00
2023-01-15T07:40:24.982Z,98947.00
2023-01-15T07:43:10.154Z,98953.00
2023-01-15T07:45:57.617Z,98906.00
2023-01-15T07:48:44.685Z,98891.00
2023-01-15T07:51:14.144Z,98941.00
2023-01-15T07:53:42.255Z,98943.00
2023-01-15T07:56:14.176Z,98968.00
2023-01-15T07:58:42.384Z,98943.00
2023-01-15T08:01:10.489Z,98940.00
2023-01-15T08:03:43.453Z,98917.00
2023-01-15T08:06:16.044Z,98956.00
2023-01-15T08:08:44.311Z,98947.00
2023-01-15T08:11:29.829Z,98909.00
2023-01-15T08:14:15.016Z,98897.00
2023-01-15T08:16:43.127Z,98968.00
2023-01-15T08:19:11.334Z,98946.00
2023-01-15T08:21:42.125Z,98922.00
2023-01-15T08:24:11.450Z,98913.00
2023-01-15T08:26:41.883Z,98896.00
2023-01-15T08:29:10.008Z,98911.00
2023-01-15T08:31:40.127Z,98941.00
2023-01-15T08:34:08.170Z,98941.00
2023-01-15T08:36:36.253Z,98884.00
2023-01-15T08:39:05.917Z,98945.00
2023-01-15T08:41:34.228Z,98939.00
2023-01-15T08:44:02.189Z,98909.00
2023-01-15T08:46:30.340Z,98920.00
2023-01-15T08:48:58.417Z,98908.00
2023-01-15T08:51:34.141Z,98980.00
2023-01-15T08:54:02.409Z,98918.00
2023-01-15T08:56:54.443Z,98966.00
2023-01-15T08:59:25.222Z,98955.00
2023-01-15T09:01:53.522Z,98952.00
2023-01-15T09:04:25.607Z,98959.00
2023-01-15T09:06:53.818Z,98951.00
2023-01-15T09:09:21.556Z,98953.00
2023-01-15T09:11:50.741Z,98956.00
2023-01-15T09:15:00.394Z,98968.00
2023-01-15T09:17:06.939Z,98964.00
2023-01-15T09:19:34.765Z,98923.00
2023-01-15T09:22:03.013Z,98966.00
2023-01-15T09:24:30.826Z,98970.00
2023-01-15T09:27:00.138Z,98982.00
2023-01-15T09:29:28.400Z,98980.00
2023-01-15T09:31:56.335Z,98978.00
2023-01-15T09:34:24.122Z,98979.00
2023-01-15T09:36:52.182Z,98979.00
2023-01-15T09:39:25.402Z,98965.00
2023-01-15T09:42:08.162Z,98971.00
2023-01-15T09:44:49.683Z,98968.00
2023-01-15T09:47:23.724Z,98990.00
2023-01-15T09:50:15.941Z,98974.00
2023-01-15T09:53:12.914Z,98978.00
2023-01-15T09:55:47.600Z,98985.00
2023-01-15T09:58:19.687Z,98964.00
2023-01-15T10:00:49.556Z,98964.00
2023-01-15T10:03:30.261Z,98959.00
2023-01-15T10:06:09.101Z,98939.00
2023-01-15T10:08:40.872Z,98936.00
2023-01-15T10:11:46.135Z,98916.00
2023-01-15T10:14:39.157Z,98953.00
2023-01-15T10:17:27.602Z,98975.00
2023-01-15T10:20:13.766Z,98960.00
2023-01-15T10:23:08.657Z,98940.00
2023-01-15T10:26:07.880Z,98964.00
2023-01-15T10:29:01.935Z,98970.00
2023-01-15T10:32:05.554Z,98941.00
2023-01-15T10:35:14.553Z,98969.00
2023-01-15T10:38:09.705Z,99000.00
2023-01-15T10:41:22.339Z,98969.00
2023-01-15T10:44:41.117Z,98949.00
2023-01-15T10:47:27.576Z,98948.00
2023-01-15T10:50:05.721Z,98990.00
2023-01-15T10:53:09.183Z,98991.00
2023-01-15T10:55:52.655Z,98986.00
2023-01-15T10:58:57.084Z,98987.00
2023-01-15T11:01:42.669Z,98964.00
2023-01-15T11:04:13.927Z,98925.00
2023-01-15T11:09:41.080Z,98984.00
2023-01-15T11:12:39.661Z,98963.00
2023-01-15T11:15:45.310Z,98921.00
2023-01-15T11:18:50.458Z,98957.00
2023-01-15T11:21:24.735Z,98942.00
2023-01-15T11:24:10.682Z,98968.00
2023-01-15T11:26:56.802Z,98965.00
2023-01-15T11:29:33.399Z,98970.00
2023-01-15T11:32:01.341Z,98927.00
2023-01-15T11:34:29.373Z,98958.00
2023-01-15T11:37:06.640Z,98970.00
2023-01-15T11:39:34.653Z,98944.00
2023-01-15T11:42:22.143Z,98981.00
2023-01-15T11:45:12.631Z,98949.00
2023-01-15T11:47:57.888Z,98964.00
2023-01-15T11:50:43.733Z,98947.00
2023-01-15T11:53:19.902Z,98941.00
2023-01-15T11:56:01.829Z,98942.00
2023-01-15T11:58:33.673Z,98902.00
2023-01-15T12:01:02.651Z,98957.00
2023-01-15T12:03:35.163Z,98949.00
2023-01-15T12:06:05.943Z,98965.00
2023-01-15T12:08:47.053Z,98897.00
2023-01-15T12:11:32.731Z,98942.00
2023-01-15T12:14:26.587Z,98948.00
2023-01-15T12:17:02.041Z,98912.00
2023-01-15T12:19:59.588Z,98968.00
2023-01-15T12:22:47.359Z,98950.00
2023-01-15T12:25:24.437Z,98928.00
2023-01-15T12:27:57.602Z,98942.00
2023-01-15T12:30:32.545Z,98956.00
2023-01-15T12:33:09.285Z,98958.00
2023-01-15T12:35:41.956Z,98932.00
2023-01-15T12:38:17.267Z,98950.00
2023-01-15T12:40:50.717Z,98940.00
2023-01-15T12:43:57.677Z,98945.00
2023-01-15T12:46:29.658Z,98917.00
2023-01-15T12:49:03.657Z,98938.00
2023-01-15T12:51:35.757Z,98922.00
2023-01-15T12:54:13.677Z,98947.00
2023-01-15T12:56:52.426Z,98943.00
2023-01-15T12:59:26.450Z,98901.00
2023-01-15T13:02:04.436Z,98931.00
2023-01-15T13:04:38.788Z,98933.00
2023-01-15T13:07:17.044Z,98923.00
2023-01-15T13:09:49.371Z,98896.00
2023-01-15T13:12:29.085Z,98891.00
2023-01-15T13:14:57.040Z,98935.00
2023-01-15T13:17:32.294Z,98893.00
2023-01-15T13:20:16.025Z,98896.00
2023-01-15T13:22:51.727Z,98936.00
2023-01-15T13:25:50.687Z,98938.00
2023-01-15T13:28:35.411Z,98951.00
2023-01-15T13:31:16.475Z,98930.00
2023-01-15T13:33:58.174Z,98911.00
2023-01-15T13:36:29.268Z,98936.00
2023-01-15T13:39:16.198Z,98886.00
2023-01-15T13:42:02.102Z,98926.00
2023-01-15T13:44:38.545Z,98930.00
2023-01-15T13:47:09.595Z,98903.00
2023-01-15T13:49:40.455Z,98923.00
2023-01-15T13:52:40.053Z,98916.00
2023-01-15T13:55:29.447Z,98878.00
2023-01-15T13:58:20.938Z,98888.00
2023-01-15T14:00:50.420Z,98898.00
2023-01-15T14:03:29.461Z,98886.00
2023-01-15T14:06:06.078Z,98890.00
2023-01-15T14:08:42.842Z,98859.00
2023-01-15T14:11:38.027Z,98932.00
2023-01-15T14:14:30.764Z,98918.00
2023-01-15T14:17:09.450Z,98925.00
2023-01-15T14:20:11.495Z,98921.00
2023-01-15T14:22:59.288Z,98938.00
2023-01-15T14:25:50.385Z,98922.00
2023-01-15T14:28:35.251Z,98900.00
2023-01-15T14:32:26.460Z,98950.00
2023-01-15T14:35:05.875Z,98956.00
2023-01-15T14:37:49.644Z,98895.00
2023-01-15T14:40:23.151Z,98954.00
2023-01-15T14:43:05.128Z,98907.00
2023-01-15T14:45:37.527Z,98936.00
2023-01-15T14:48:19.534Z,98894.00
2023-01-15T14:50:50.163Z,98948.00
2023-01-15T14:53:45.230Z,98962.00
2023-01-15T14:56:21.091Z,98963.00
2023-01-15T14:58:54.274Z,98965.00
2023-01-15T15:01:51.414Z,98983.00
2023-01-15T15:05:04.638Z,98981.00
2023-01-15T15:07:45.610Z,98974.00
2023-01-15T15:10:57.717Z,98978.00
2023-01-15T15:13:32.259Z,98934.00
2023-01-15T15:16:08.642Z,98984.00
2023-01-15T15:19:01.629Z,98954.00
2023-01-15T15:22:52.420Z,98936.00
2023-01-15T15:25:42.036Z,98976.00
2023-01-15T15:35:40.489Z,98979.00
2023-01-15T15:38:17.682Z,98984.00
2023-01-15T15:40:52.805Z,98984.00
2023-01-15T15:43:58.371Z,98974.00
2023-01-15T15:47:36.105Z,98962.00
2023-01-15T15:50:28.658Z,98974.00
2023-01-15T15:52:59.131Z,98958.00
2023-01-15T15:55:38.232Z,99004.00
2023-01-15T15:58:09.878Z,99010.00
2023-01-15T16:00:43.219Z,98988.00
2023-01-15T16:03:20.832Z,99015.00
2023-01-15T16:06:00.020Z,99013.00
2023-01-15T16:08:29.659Z,98952.00
2023-01-15T16:11:00.939Z,99014.00
2023-01-15T16:13:34.641Z,99024.00
2023-01-15T16:16:04.444Z,99038.00
2023-01-15T16:18:35.825Z,99024.00
2023-01-15T16:21:04.118Z,99031.00
2023-01-15T16:23:33.070Z,99027.00
2023-01-15T16:26:05.522Z,99027.00
2023-01-15T16:28:40.278Z,98981.00
2023-01-15T16:31:08.757Z,99036.00
2023-01-15T16:33:38.418Z,99043.00
2023-01-15T16:36:08.014Z,99016.00
2023-01-15T16:38:39.002Z,99043.00
2023-01-15T16:41:07.474Z,99039.00
2023-01-15T16:43:55.515Z,99055.00
2023-01-15T16:46:25.316Z,99062.00
2023-01-15T16:49:27.421Z,99040.00
2023-01-15T16:51:57.160Z,99033.00
2023-01-15T16:54:46.589Z,99069.00
2023-01-15T16:57:34.661Z,99047.00
2023-01-15T17:00:08.815Z,99053.00
2023-01-15T17:02:45.267Z,99042.00
2023-01-15T17:05:22.023Z,99072.00
2023-01-15T17:07:51.360Z,99053.00
2023-01-15T17:10:22.696Z,99059.00
2023-01-15T17:12:51.649Z,99032.00
2023-01-15T17:15:48.726Z,99050.00
2023-01-15T17:18:23.028Z,99064.00
2023-01-15T17:20:52.694Z,99082.00
2023-01-15T17:23:26.163Z,99087.00
2023-01-15T17:25:58.031Z,99094.00
2023-01-15T17:28:28.601Z,99043.00
2023-01-15T17:31:01.790Z,99075.00
2023-01-15T17:33:29.926Z,99042.00
2023-01-15T17:36:14.890Z,99085.00
2023-01-15T17:38:43.090Z,99098.00
2023-01-15T17:41:11.869Z,99071.00
2023-01-15T17:43:40.080Z,99055.00
2023-01-15T17:46:11.426Z,99054.00
2023-01-15T17:48:41.540Z,99106.00
2023-01-15T17:51:42.478Z,99120.00
2023-01-15T17:54:33.094Z,99077.00
2023-01-15T17:57:18.517Z,99093.00
2023-01-15T18:00:07.039Z,99084.00
2023-01-15T18:03:04.902Z,99082.00
2023-01-15T18:05:45.376Z,99119.00
2023-01-15T18:08:15.605Z,99057.00
2023-01-15T18:10:46.640Z,99091.00
2023-01-15T18:13:14.995Z,99064.00
2023-01-15T18:15:44.137Z,99093.00
2023-01-15T18:18:12.567Z,99110.00
2023-01-15T18:20:40.821Z,99104.00
2023-01-15T18:23:11.077Z,99066.00
2023-01-15T18:25:46.273Z,99120.00
2023-01-15T18:28:15.173Z,99115.00
2023-01-15T18:30:43.284Z,99105.00
2023-01-15T18:33:17.318Z,99132.00
2023-01-15T18:35:48.576Z,99099.00
2023-01-15T18:38:16.910Z,99110.00
2023-01-15T18:40:46.383Z,99145.00
2023-01-15T18:43:31.990Z,99128.00
2023-01-15T18:46:28.795Z,99106.00
2023-01-15T18:48:59.213Z,99158.00
2023-01-15T18:51:55.585Z,99117.00
2023-01-15T18:54:24.095Z,99144.00
2023-01-15T18:57:06.548Z,99119.00
2023-01-15T19:00:01.635Z,99139.00
2023-01-15T19:02:39.349Z,99161.00
2023-01-15T19:05:08.484Z,99116.00
2023-01-15T19:07:45.166Z,99138.00
2023-01-15T19:10:32.379Z,99148.00
2023-01-15T19:13:33.717Z,99151.00
2023-01-15T19:16:23.499Z,99147.00
2023-01-15T19:18:53.772Z,99137.00
2023-01-15T19:21:59.554Z,99157.00
2023-01-15T19:24:45.348Z,99163.00
2023-01-15T19:27:13.700Z,99147.00
2023-01-15T19:29:43.743Z,99126.00
2023-01-15T19:32:12.564Z,99162.00
2023-01-15T19:34:40.728Z,99146.00
2023-01-15T19:37:08.843Z,99123.00
2023-01-15T19:39:37.224Z,99170.00
2023-01-15T19:42:22.996Z,99158.00
2023-01-15T19:45:10.059Z,99140.00
2023-01-15T19:47:58.358Z,99164.00
2023-01-15T19:50:37.370Z,99162.00
2023-01-15T19:53:06.557Z,99119.00
2023-01-15T19:55:35.346Z,99154.00
2023-01-15T19:58:05.940Z,99149.00
2023-01-15T20:00:37.455Z,99135.00
2023-01-15T20:03:05.989Z,99151.00
2023-01-15T20:05:34.228Z,99179.00
2023-01-15T20:08:03.280Z,99157.00
2023-01-15T20:10:34.350Z,99144.00
2023-01-15T20:13:30.231Z,99122.00
2023-01-15T20:17:07.632Z,99157.00
2023-01-15T20:22:43.246Z,99143.00
2023-01-15T20:25:11.968Z,99154.00
2023-01-15T20:27:41.311Z,99158.00
2023-01-15T20:30:12.454Z,99110.00
2023-01-15T20:32:43.036Z,99152.00
2023-01-15T20:35:15.618Z,99141.00
2023-01-15T20:37:44.141Z,99154.00
2023-01-15T20:40:13.532Z,99159.00
2023-01-15T20:42:59.445Z,99127.00
2023-01-15T20:45:27.857Z,99134.00
2023-01-15T20:48:13.286Z,99113.00
2023-01-15T20:51:00.476Z,99158.00
2023-01-15T20:53:30.534Z,99125.00
2023-01-15T20:55:58.751Z,99138.00
2023-01-15T20:58:27.442Z,99131.00
2023-01-15T21:00:57.676Z,99139.00
2023-01-15T21:03:30.457Z,99103.00
2023-01-15T21:06:05.032Z,99150.00
2023-01-15T21:08:34.149Z,99113.00
2023-01-15T21:11:02.543Z,99149.00
2023-01-15T21:13:33.962Z,99144.00
2023-01-15T21:16:05.567Z,99100.00
2023-01-15T21:18:37.623Z,99139.00
2023-01-15T21:21:28.135Z,99109.00
2023-01-15T21:23:56.147Z,99096.00
2023-01-15T21:26:25.098Z,99132.00
2023-01-15T21:28:55.095Z,99147.00
2023-01-15T21:31:24.577Z,99131.00
2023-01-15T21:33:54.263Z,99090.00
2023-01-15T21:36:27.384Z,99118.00
2023-01-15T21:38:56.837Z,99097.00
2023-01-15T21:41:46.596Z,99129.00
2023-01-15T21:44:31.547Z,99122.00
2023-01-15T21:47:00.548Z,99145.00
2023-01-15T21:49:28.787Z,99147.00
2023-01-15T21:51:58.245Z,99147.00
2023-01-15T21:54:26.718Z,99108.00
2023-01-15T21:56:55.157Z,99154.00
2023-01-15T21:59:23.712Z,99135.00
2023-01-15T22:01:54.841Z,99150.00
2023-01-15T22:04:24.447Z,99137.00
2023-01-15T22:06:55.887Z,99141.00
2023-01-15T22:09:25.468Z,99156.00
2023-01-15T22:11:53.941Z,99121.00
2023-01-15T22:14:26.664Z,99153.00
2023-01-15T22:16:56.284Z,99130.00
2023-01-15T22:19:26.876Z,99149.00
2023-01-15T22:21:59.387Z,99100.00
2023-01-15T22:24:30.354Z,99157.00
2023-01-15T22:26:58.939Z,99137.00
2023-01-15T22:29:28.882Z,99119.00
2023-01-15T22:31:57.281Z,99095.00
2023-01-15T22:34:27.369Z,99110.00
2023-01-15T22:36:55.992Z,99111.00
2023-01-15T22:39:24.985Z,99099.00
2023-01-15T22:42:15.003Z,99120.00
2023-01-15T22:44:45.159Z,99109.00
2023-01-15T22:47:13.436Z,99074.00
2023-01-15T22:49:41.316Z,99063.00
2023-01-15T22:52:09.309Z,99082.00
2023-01-15T22:54:37.227Z,99113.00
2023-01-15T22:57:06.560Z,99110.00
2023-01-15T22:59:34.437Z,99095.00
2023-01-15T23:02:02.434Z,99071.00
2023-01-15T23:04:30.486Z,99094.00
2023-01-15T23:06:58.421Z,99133.00
2023-01-15T23:09:26.468Z,99085.00
2023-01-15T23:11:54.582Z,99077.00
2023-01-15T23:14:23.888Z,99118.00
2023-01-15T23:16:52.503Z,99108.00
2023-01-15T23:19:21.528Z,99100.00
2023-01-15T23:21:49.701Z,99105.00
2023-01-15T23:24:18.685Z,99100.00
2023-01-15T23:26:46.519Z,99108.00
2023-01-15T23:29:14.497Z,99076.00
2023-01-15T23:31:43.900Z,99086.00
2023-01-15T23:34:12.671Z,99089.00
2023-01-15T23:36:40.722Z,99052.00
2023-01-15T23:39:08.872Z,99081.00
2023-01-15T23:41:54.143Z,99070.00
2023-01-15T23:44:39.884Z,99038.00
2023-01-15T23:47:10.012Z,99053.00
2023-01-15T23:49:38.100Z,99031.00
2023-01-15T23:52:06.659Z,99018.00
2023-01-15T23:54:34.508Z,99051.00
2023-01-15T23:57:03.117Z,99027.00
2023-01-15T23:59:31.373Z,99041.00
